Station: MURRAY BRIDGE AP

  Atmospheric Gas Attenuation - ITU Rec 676-11   --------------- db/100km ---------------
Date Time Temp RH % AH g/m3 Dew Point Wind Direction Speed kph Gust kph Barometer mB Rainfall Since 9am 24GHz 47GHz 76GHz 122GHz 134GHz 241GHz
24 20:30 28.1 33 9.02 10.3 17 28 1002.6 0 19.8 22.4 34.4 90.3 86.0 297.0
24 20:20 28.4 33 9.17 10.6 24 26 1002.5 0 20.1 22.5 34.7 91.3 87.4 301.7
24 20:10 28.4 34 9.45 11 26 30 1002.2 0 20.7 22.9 35.7 93.7 90.4 312.4
24 20:00 28.6 34 9.56 11.2 26 33 1002 0 20.9 23.0 35.9 94.5 91.4 315.9
24 19:50 29.3 31 9.05 10.4 24 28 1001.9 0 19.8 22.1 33.9 89.2 85.1 293.7
24 19:40 30.1 28 8.54 9.6 26 30 1001.6 0 18.7 21.2 32.0 83.9 78.8 271.8
24 19:30 31.4 25 8.18 9 20 32 1001.4 0 17.9 20.5 30.3 79.6 73.8 254.6
24 19:20 32.5 23 7.98 8.7 26 30 1001.1 0 17.5 20.0 29.3 76.9 70.8 244.1
24 19:10 34.4 20 7.67 8.2 20 22 1001 0 16.8 19.2 27.8 72.7 66.2 228.1
24 19:00 37.6 15 6.78 6.6 17 30 1000.6 0 14.8 17.6 24.3 63.5 55.6 191.1
24 18:50 41.5 9 4.95 2.3 11 13 1000.3 0 11.0 15.0 18.6 48.4 38.0 129.2
24 18:40 42 9 5.08 2.6 13 19 1000.3 0 11.3 15.0 18.8 48.9 38.8 132.1
24 18:30 41.3 9 4.91 2.1 13 19 1000.2 0 10.9 15.0 18.6 48.2 37.7 128.3
24 18:20 41.3 9 4.91 2.1 17 19 1000.3 0 10.9 15.0 18.6 48.2 37.7 128.3
24 18:10 41.6 9 4.98 2.3 13 13 1000.3 0 11.1 15.0 18.7 48.5 38.2 129.9
24 18:00 42.5 8 4.63 1.3 15 24 1000.3 0 10.3 14.5 17.6 45.8 35.0 118.8
24 17:50 42.3 9 5.15 2.8 9 13 1000.5 0 11.4 15.1 18.9 49.2 39.2 133.7
24 17:40 41.5 9 4.95 2.3 19 22 1000.5 0 11.0 15.0 18.6 48.4 38.0 129.2
24 17:30 42 9 5.08 2.6 20 28 1000.4 0 11.3 15.0 18.8 49.0 38.8 132.1
24 17:20 43 8 4.74 1.7 22 26 1000.6 0 10.6 14.6 17.8 46.2 35.7 121.2
24 17:10 41.7 9 5 2.4 20 26 1000.7 0 11.1 15.0 18.7 48.6 38.3 130.4
24 17:00 42.1 9 5.1 2.7 22 35 1000.7 0 11.3 15.1 18.9 49.0 38.9 132.6
24 16:50 41.5 9 4.95 2.3 20 26 1001 0 11.0 15.0 18.6 48.4 38.0 129.3
24 16:40 41.3 9 4.91 2.1 24 28 1001.1 0 10.9 15.0 18.6 48.3 37.8 128.4
24 16:30 41.3 9 4.91 2.1 19 26 1001.1 0 10.9 15.0 18.6 48.3 37.8 128.4
24 16:20 41.2 9 4.88 2 28 32 1001.3 0 10.9 15.0 18.5 48.1 37.6 127.7
24 16:10 41.2 10 5.42 3.5 26 32 1001.4 0 12.0 15.5 19.9 51.7 42.0 143.2
24 16:00 41.5 10 5.51 3.7 24 35 1001.4 0 12.1 15.6 20.0 52.1 42.6 145.3
24 15:50 41.7 9 5 2.4 19 24 1001.5 0 11.1 15.0 18.7 48.7 38.3 130.5
24 15:40 41.4 9 4.93 2.2 17 20 1001.5 0 11.0 15.0 18.6 48.4 37.9 128.9
24 15:30 41.7 9 5 2.4 20 32 1001.5 0 11.1 15.0 18.7 48.7 38.3 130.5
24 15:20 41.8 9 5.03 2.5 22 26 1001.7 0 11.2 15.1 18.8 48.8 38.5 131.2
24 15:10 42 9 5.08 2.6 17 20 1001.7 0 11.3 15.1 18.9 49.0 38.8 132.3
24 15:00 42.3 8 4.58 1.2 24 33 1001.8 0 10.3 14.5 17.6 45.7 34.8 117.9
24 14:50 43 8 4.74 1.7 22 37 1002 0 10.6 14.6 17.8 46.3 35.7 121.4
24 14:40 42.7 8 4.67 1.5 17 19 1002.2 0 10.4 14.6 17.7 46.0 35.3 119.9
24 14:30 42.7 8 4.67 1.5 30 50 1002.2 0 10.4 14.6 17.7 46.0 35.3 119.9
24 14:20 43.4 8 4.84 2 22 26 1002.4 0 10.7 14.6 18.0 46.8 36.4 123.7
24 14:10 43.1 8 4.77 1.8 32 35 1002.6 0 10.6 14.6 17.9 46.5 36.0 122.2
24 14:00 43.3 8 4.81 1.9 26 39 1002.5 0 10.7 14.6 18.0 46.6 36.2 123.0
24 13:50 44.3 8 5.05 2.7 22 28 1002.8 0 11.1 14.7 18.3 47.7 37.7 128.3
24 13:40 43 8 4.74 1.7 26 33 1003.1 0 10.6 14.6 17.9 46.4 35.8 121.5
24 13:30 42.3 8 4.58 1.2 28 35 1003.3 0 10.3 14.6 17.6 45.7 34.8 118.0
24 13:20 41.7 8 4.45 0.8 20 28 1003.6 0 10.0 14.5 17.5 45.2 34.0 115.2
24 13:10 42.3 8 4.58 1.2 37 44 1003.8 0 10.3 14.6 17.7 45.8 34.8 118.1
24 13:00 41.9 8 4.49 0.9 30 39 1003.8 0 10.1 14.6 17.5 45.4 34.3 116.1
24 12:50 41.3 8 4.36 0.5 33 35 1004.1 0 9.8 14.5 17.3 44.9 33.5 113.3
24 12:40 41.4 8 4.38 0.5 30 35 1004.2 0 9.9 14.5 17.4 45.0 33.6 113.7
24 12:30 41.1 8 4.32 0.3 30 37 1004.3 0 9.8 14.5 17.3 44.7 33.3 112.4
24 12:20 40.3 8 4.15 -0.3 32 33 1004.6 0 9.4 14.5 17.0 44.1 32.2 108.7
24 12:10 38.7 9 4.31 0.2 26 28 1004.7 0 9.8 14.9 17.7 45.9 34.1 115.3
24 12:00 38.3 9 4.22 -0.1 30 39 1004.8 0 9.6 14.8 17.6 45.5 33.5 113.2
24 11:50 38.4 9 4.24 0 30 37 1005 0 9.7 14.8 17.6 45.6 33.7 113.7
24 11:40 38.1 9 4.18 -0.3 28 33 1005.2 0 9.6 14.8 17.5 45.4 33.3 112.3
24 11:30 37.5 9 4.05 -0.7 28 37 1005.3 0 9.3 14.8 17.4 44.9 32.5 109.4
24 11:20 37 10 4.39 0.4 26 28 1005.5 0 10.0 15.2 18.3 47.4 35.5 119.9
24 11:10 36.8 11 4.78 1.5 28 33 1005.7 0 10.8 15.7 19.3 50.2 38.8 131.8
24 11:00 35.7 11 4.51 0.7 26 33 1005.7 0 10.3 15.6 18.9 48.9 37.0 125.3
24 10:50 35.3 12 4.82 1.6 28 32 1005.9 0 10.9 16.0 19.8 51.3 39.9 135.3
24 10:40 34.8 12 4.7 1.2 26 30 1006 0 10.7 15.9 19.6 50.8 39.1 132.4
24 10:30 34.3 13 4.96 2 24 32 1006 0 11.2 16.3 20.4 52.9 41.6 141.2
24 10:20 33.8 14 5.2 2.6 24 32 1006.2 0 11.7 16.6 21.1 55.0 43.9 149.5
24 10:10 33.4 16 5.82 4.2 22 26 1006.3 0 13.0 17.4 22.9 59.8 49.8 170.1
24 10:00 32.7 16 5.61 3.6 26 30 1006.4 0 12.6 17.3 22.6 58.7 48.3 164.7
24 09:50 32.5 17 5.9 4.3 28 32 1006.5 0 13.2 17.6 23.4 61.0 51.1 174.5
24 09:40 32.6 18 6.28 5.2 24 30 1006.7 0 14.0 18.1 24.5 63.9 54.6 186.9
24 09:30 32.6 19 6.62 6 28 33 1006.7 0 14.7 18.5 25.5 66.5 57.8 198.2
24 09:20 31.3 19 6.18 4.9 26 32 1007 0 13.8 18.2 24.6 64.1 54.5 186.4
24 09:10 30.6 21 6.58 5.8 24 26 1007.1 0 14.7 18.8 26.0 67.8 58.8 201.6
24 09:00 29.2 23 6.68 6 22 26 1007.1 0 14.9 19.2 26.7 69.7 60.8 208.5
24 08:50 28.6 25 7.03 6.7 22 26 1007.3 0 15.7 19.8 28.0 73.1 64.8 222.5
24 08:40 28.3 26 7.19 7 20 22 1007.3 0 16.0 20.1 28.6 74.7 66.7 229.1
24 08:30 27 27 6.95 6.4 19 24 1007.3 0 15.6 20.0 28.2 73.8 65.3 223.9
24 08:20 26.8 27 6.87 6.2 19 22 1007.3 0 15.4 20.0 28.1 73.3 64.6 221.5
24 08:10 26.5 28 7.01 6.5 17 20 1007.3 0 15.7 20.2 28.6 74.8 66.3 227.4
24 08:00 26.4 30 7.47 7.4 15 19 1007.2 0 16.7 20.8 30.1 78.8 71.2 244.8
24 07:50 25.2 32 7.45 7.3 13 17 1007.2 0 16.7 21.1 30.5 79.8 72.1 247.6
24 07:40 24.5 33 7.39 7.2 13 15 1007.2 0 16.6 21.1 30.5 79.9 72.0 247.4
24 07:30 24.3 33 7.3 7 13 17 1007.2 0 16.4 21.1 30.3 79.3 71.2 244.5
24 07:20 24.1 33 7.22 6.8 15 15 1007.1 0 16.2 21.0 30.1 78.8 70.5 242.1
24 07:10 23.7 34 7.27 6.9 15 17 1007.1 0 16.4 21.2 30.4 79.6 71.4 245.2
24 07:00 23.3 36 7.53 7.4 15 17 1007.1 0 16.9 21.6 31.4 82.3 74.6 256.5
24 06:50 21.7 38 7.25 6.8 11 11 1007 0 16.4 21.6 31.1 81.4 73.0 250.4
24 06:40 21.8 38 7.29 6.9 9 9 1007 0 16.5 21.6 31.2 81.7 73.3 251.7
24 06:30 22.1 37 7.22 6.7 11 15 1007 0 16.3 21.5 30.8 80.7 72.3 248.0
24 06:20 22.9 37 7.56 7.4 15 15 1006.9 0 17.0 21.7 31.7 83.0 75.3 258.8
24 06:10 22 38 7.37 7 11 13 1006.9 0 16.6 21.7 31.4 82.2 74.0 254.2
24 06:00 21.9 38 7.33 7 11 13 1006.8 0 16.6 21.7 31.3 81.9 73.7 252.9
24 05:50 22.1 37 7.22 6.7 11 11 1006.9 0 16.3 21.5 30.8 80.7 72.3 248.0
24 05:40 22.7 35 7.07 6.5 11 13 1006.8 0 16.0 21.1 30.1 78.8 70.1 240.3
24 05:30 23.2 34 7.07 6.5 11 13 1006.7 0 16.0 21.0 29.9 78.3 69.6 238.8
24 05:20 23.5 33 6.98 6.3 13 13 1006.7 0 15.8 20.8 29.5 77.2 68.4 234.5
24 04:50 23.7 33 7.06 6.5 9 11 1006.6 0 15.9 20.9 29.7 77.7 69.1 237.0
24 04:40 23.7 35 7.49 7.3 15 15 1006.8 0 16.8 21.5 31.1 81.6 73.8 253.6
24 04:30 22 38 7.37 7 11 15 1006.6 0 16.6 21.7 31.4 82.2 74.0 254.1
24 04:20 22.9 36 7.36 7 9 11 1006.7 0 16.6 21.5 31.0 81.2 73.1 251.0
24 04:10 23.4 36 7.57 7.5 13 13 1006.7 0 17.0 21.6 31.5 82.6 75.0 257.6
24 04:00 20.5 42 7.47 7.2 2 7 1006.6 0 16.9 22.2 32.3 84.6 76.6 262.9
24 03:50 21.5 38 7.16 6.6 0 0 1006.9 0 16.2 21.5 30.9 80.8 72.1 247.4
24 03:40 22.8 37 7.52 7.4 7 7 1006.9 0 16.9 21.7 31.6 82.7 75.0 257.6

Last Refresh: 24-Jan-2021 20:39:50

Most of the information presented on this site is sourced from the Bureau of Meteorology.  Copyright in all material sourced from the Bureau of Meteorology resides with the Commonwealth of Australia.